Time;durP1;ratioP1;P1;durP2;ratioP2;P2;SDS_P1;SDS_P2;PMS_P1;PMS_P2;Temp;Humidity;BMP_temperature;BMP_pressure;BME280_temperature;BME280_humidity;BME280_pressure;Samples;Min_cycle;Max_cycle;Signal;HPM_P1;HPM_P2
2022/11/08 00:02:10;;;;;;;10.10;1.45;;;13.40;99.90;;;;;;5083467;28;20862;-58
2022/11/08 00:04:37;;;;;;;11.75;2.20;;;13.40;99.90;;;;;;5099683;28;20128;-56
2022/11/08 00:15:16;;;;;;;8.15;1.40;;;13.40;99.90;;;;;;5091319;28;20040;-56
2022/11/08 00:17:42;;;;;;;10.80;1.50;;;13.40;99.90;;;;;;5091155;28;20262;-57
2022/11/08 00:20:08;;;;;;;7.75;1.35;;;13.30;99.90;;;;;;5080812;28;20067;-56
2022/11/08 00:22:34;;;;;;;7.57;1.50;;;13.30;99.90;;;;;;5079267;28;20040;-58
2022/11/08 00:24:59;;;;;;;16.05;3.03;;;13.30;99.90;;;;;;5070448;28;20040;-57
2022/11/08 00:27:25;;;;;;;11.35;3.00;;;13.30;99.90;;;;;;5069741;28;20541;-58
2022/11/08 00:29:51;;;;;;;10.95;1.48;;;13.20;99.90;;;;;;5070576;28;20085;-57
2022/11/08 00:32:20;;;;;;;12.75;1.63;;;13.20;99.90;;;;;;5085773;28;20438;-58
2022/11/08 00:34:47;;;;;;;9.27;1.65;;;13.20;99.90;;;;;;5089428;28;20036;-58
2022/11/08 00:37:13;;;;;;;8.70;1.92;;;13.10;99.90;;;;;;5086254;28;20489;-57
2022/11/08 00:39:39;;;;;;;12.13;1.90;;;13.10;99.90;;;;;;5070405;28;20044;-57
2022/11/08 00:42:04;;;;;;;7.70;1.35;;;13.10;99.90;;;;;;5074488;28;20036;-56
2022/11/08 00:44:30;;;;;;;10.10;1.63;;;13.00;99.90;;;;;;5088836;28;20416;-58
2022/11/08 00:46:55;;;;;;;13.53;2.33;;;13.00;99.90;;;;;;5094738;28;20119;-58
2022/11/08 00:49:21;;;;;;;8.73;2.28;;;13.00;99.90;;;;;;5105683;28;20492;-56
2022/11/08 00:51:47;;;;;;;13.73;2.00;;;13.00;99.90;;;;;;5091747;28;20114;-58
2022/11/08 00:54:15;;;;;;;9.40;1.67;;;13.00;99.90;;;;;;5091104;28;20159;-56
2022/11/08 00:56:42;;;;;;;16.30;1.65;;;13.00;99.90;;;;;;5102093;28;20043;-57
2022/11/08 00:59:10;;;;;;;8.68;2.55;;;12.90;99.90;;;;;;5103011;28;20429;-57
2022/11/08 01:01:36;;;;;;;10.73;1.70;;;12.90;99.90;;;;;;5078204;28;20076;-56
2022/11/08 01:04:01;;;;;;;11.47;1.90;;;12.90;99.90;;;;;;5090121;28;20105;-57
2022/11/08 01:06:27;;;;;;;10.27;1.73;;;12.90;99.90;;;;;;5090118;28;20333;-57
2022/11/08 01:08:54;;;;;;;11.80;2.05;;;12.80;99.90;;;;;;5090097;28;20121;-56
2022/11/08 01:11:22;;;;;;;8.65;2.10;;;12.80;99.90;;;;;;5090403;28;20036;-58
2022/11/08 01:13:48;;;;;;;10.85;2.97;;;12.80;99.90;;;;;;5083271;28;20087;-58
2022/11/08 01:16:17;;;;;;;9.82;1.67;;;12.80;99.90;;;;;;5070236;28;20504;-57
2022/11/08 01:18:43;;;;;;;12.02;1.90;;;12.80;99.90;;;;;;5072467;28;20043;-57
2022/11/08 01:21:10;;;;;;;19.92;2.75;;;12.80;99.90;;;;;;5089812;28;20067;-57
2022/11/08 01:23:35;;;;;;;;;;;12.80;99.90;;;;;;5090056;28;20150;-58
2022/11/08 01:26:04;;;;;;;9.15;2.45;;;12.80;99.90;;;;;;5090492;28;20456;-57
2022/11/08 01:28:31;;;;;;;10.30;1.63;;;12.80;99.90;;;;;;5090184;28;20423;-58
2022/11/08 01:31:01;;;;;;;10.02;1.77;;;12.80;99.90;;;;;;5089745;28;20516;-57
2022/11/08 01:33:26;;;;;;;7.75;2.47;;;12.70;99.90;;;;;;5089618;28;20283;-58
2022/11/08 01:35:52;;;;;;;11.27;2.80;;;12.70;99.90;;;;;;5089917;28;20081;-57
2022/11/08 01:38:18;;;;;;;7.95;1.98;;;12.70;99.90;;;;;;5090422;28;20036;-57
2022/11/08 01:40:45;;;;;;;14.03;1.90;;;12.70;99.90;;;;;;5088923;28;20398;-56
2022/11/08 01:43:24;;;;;;;13.23;2.35;;;12.60;99.90;;;;;;5089816;28;20281;-56
2022/11/08 01:46:11;;;;;;;12.10;1.85;;;12.60;99.90;;;;;;5090506;28;20076;-56
2022/11/08 01:49:02;;;;;;;13.35;2.50;;;12.60;99.90;;;;;;5083986;28;20047;-58
2022/11/08 01:51:35;;;;;;;14.23;1.48;;;12.60;99.90;;;;;;5075206;28;20033;-57
2022/11/08 01:54:04;;;;;;;9.60;2.15;;;12.60;99.90;;;;;;5074016;28;20478;-57
2022/11/08 01:56:29;;;;;;;10.88;1.67;;;12.70;99.90;;;;;;5082208;28;20040;-56
2022/11/08 01:58:56;;;;;;;11.40;2.70;;;12.70;99.90;;;;;;5094476;28;20052;-56
2022/11/08 02:01:22;;;;;;;11.90;1.95;;;12.70;99.90;;;;;;5094602;28;20415;-57
2022/11/08 02:03:47;;;;;;;11.63;2.05;;;12.70;99.90;;;;;;5099231;28;20054;-58
2022/11/08 02:06:14;;;;;;;5.65;1.65;;;12.70;99.90;;;;;;5100379;28;20044;-57
2022/11/08 02:08:41;;;;;;;7.35;1.52;;;12.70;99.90;;;;;;5093384;28;20043;-57
2022/11/08 02:11:10;;;;;;;6.15;1.30;;;12.70;99.90;;;;;;5080501;28;20040;-56
2022/11/08 02:13:37;;;;;;;8.18;1.60;;;12.70;99.90;;;;;;5073242;28;20040;-56
2022/11/08 02:16:15;;;;;;;5.25;1.50;;;12.70;99.90;;;;;;5073222;28;20040;-56
2022/11/08 02:18:42;;;;;;;10.98;1.80;;;12.70;99.90;;;;;;5073452;28;20119;-56
2022/11/08 02:21:36;;;;;;;10.93;1.58;;;12.70;99.90;;;;;;5080037;28;20035;-56
2022/11/08 02:24:08;;;;;;;8.15;1.30;;;12.60;99.90;;;;;;5093264;28;20046;-57
2022/11/08 02:26:35;;;;;;;10.27;1.58;;;12.60;99.90;;;;;;5092233;28;20040;-58
2022/11/08 02:29:33;;;;;;;13.32;1.92;;;12.60;99.90;;;;;;5093412;28;20043;-56
2022/11/08 02:32:00;;;;;;;7.05;1.38;;;12.60;99.90;;;;;;5082414;28;20078;-57
2022/11/08 02:34:31;;;;;;;6.75;1.27;;;12.50;99.90;;;;;;5076629;28;20035;-56
2022/11/08 02:36:58;;;;;;;9.93;1.52;;;12.50;99.90;;;;;;5093100;28;20080;-57
2022/11/08 02:39:24;;;;;;;10.88;1.67;;;12.50;99.90;;;;;;5092185;28;20040;-57
2022/11/08 02:41:50;;;;;;;11.55;1.60;;;12.50;99.90;;;;;;5087523;28;20354;-57
2022/11/08 02:44:16;;;;;;;5.95;1.10;;;12.40;99.90;;;;;;5071027;28;20039;-58
2022/11/08 02:46:41;;;;;;;4.23;1.40;;;12.40;99.90;;;;;;5082602;28;20250;-56
2022/11/08 02:49:07;;;;;;;8.90;1.60;;;12.40;99.90;;;;;;5091788;28;20847;-58
2022/11/08 02:51:32;;;;;;;8.07;1.20;;;12.40;99.90;;;;;;5091996;28;20428;-56
2022/11/08 02:53:58;;;;;;;8.33;2.03;;;12.30;99.90;;;;;;5089272;28;20293;-58
2022/11/08 02:56:23;;;;;;;10.47;2.07;;;12.30;99.90;;;;;;5091722;28;20780;-56
2022/11/08 02:58:49;;;;;;;5.20;1.38;;;12.30;99.90;;;;;;5090942;28;20036;-56
2022/11/08 03:01:14;;;;;;;8.33;1.93;;;12.30;99.90;;;;;;5091351;28;20055;-58
2022/11/08 03:03:40;;;;;;;11.70;1.60;;;12.30;99.90;;;;;;5089477;28;20119;-57
2022/11/08 03:06:06;;;;;;;6.53;1.45;;;12.30;99.90;;;;;;5090383;28;20292;-56
2022/11/08 03:08:31;;;;;;;9.33;1.53;;;12.20;99.90;;;;;;5090748;28;20044;-57
2022/11/08 03:10:59;;;;;;;7.00;1.13;;;12.20;99.90;;;;;;5091336;28;20349;-57
2022/11/08 03:13:24;;;;;;;4.78;1.48;;;12.20;99.90;;;;;;5089312;28;20085;-56
2022/11/08 03:15:50;;;;;;;7.03;1.50;;;12.20;99.90;;;;;;5090972;28;20446;-57
2022/11/08 03:18:16;;;;;;;10.32;1.48;;;12.20;99.90;;;;;;5091652;28;20292;-58
2022/11/08 03:20:41;;;;;;;9.77;2.07;;;12.20;99.90;;;;;;5091340;28;20044;-56
2022/11/08 03:23:07;;;;;;;5.63;1.95;;;12.20;99.90;;;;;;5083938;28;20286;-57
2022/11/08 03:25:33;;;;;;;6.70;1.33;;;12.20;99.90;;;;;;5071262;28;20029;-57
2022/11/08 03:28:04;;;;;;;13.80;2.20;;;12.20;99.90;;;;;;5076679;28;20107;-57
2022/11/08 03:30:30;;;;;;;11.43;2.20;;;12.20;99.90;;;;;;5091072;28;20066;-57
2022/11/08 03:32:55;;;;;;;8.68;1.27;;;12.10;99.90;;;;;;5089821;28;20032;-57
2022/11/08 03:35:21;;;;;;;16.05;2.17;;;12.20;99.90;;;;;;5071145;28;20086;-57
2022/11/08 03:40:27;;;;;;;11.07;1.63;;;12.10;99.90;;;;;;5087377;28;20405;-59
2022/11/08 03:42:58;;;;;;;7.43;1.55;;;12.20;99.90;;;;;;5086853;28;20048;-59
2022/11/08 03:45:23;;;;;;;7.65;1.25;;;12.20;99.90;;;;;;5068579;28;20042;-58
2022/11/08 03:47:49;;;;;;;8.80;1.30;;;12.20;99.90;;;;;;5067515;28;20525;-59
2022/11/08 03:50:15;;;;;;;7.13;1.30;;;12.20;99.90;;;;;;5067888;28;20045;-58
2022/11/08 03:52:52;;;;;;;6.50;1.25;;;12.10;99.90;;;;;;5067159;28;20396;-58
2022/11/08 03:55:19;;;;;;;;;;;12.10;99.90;;;;;;5065646;28;20036;-59
2022/11/08 03:57:47;;;;;;;11.73;1.43;;;12.10;99.90;;;;;;5070603;28;19919;-58
2022/11/08 04:00:14;;;;;;;8.00;1.73;;;12.10;99.90;;;;;;5087541;28;20802;-58
2022/11/08 04:02:40;;;;;;;7.22;2.05;;;12.10;99.90;;;;;;5086047;28;20127;-57
2022/11/08 04:05:08;;;;;;;11.50;1.95;;;12.10;99.90;;;;;;5071991;28;20029;-57
2022/11/08 04:07:34;;;;;;;8.50;2.13;;;12.10;99.90;;;;;;5047024;28;20038;-57
2022/11/08 04:09:59;;;;;;;8.55;1.58;;;12.10;99.90;;;;;;5046425;28;20507;-58
2022/11/08 04:15:15;;;;;;;6.80;1.40;;;12.10;99.90;;;;;;5060300;28;20056;-59
2022/11/08 04:23:17;;;;;;;5.78;1.42;;;12.10;99.90;;;;;;5048865;28;20045;-57
2022/11/08 04:25:44;;;;;;;10.18;1.45;;;12.10;99.90;;;;;;5065565;28;20037;-58
2022/11/08 04:28:10;;;;;;;7.30;2.45;;;12.00;99.90;;;;;;5065492;28;20072;-57
2022/11/08 04:30:36;;;;;;;5.15;1.08;;;12.00;99.90;;;;;;5064107;28;20595;-58
2022/11/08 04:33:03;;;;;;;7.35;1.75;;;12.00;99.90;;;;;;5065881;28;20439;-58
2022/11/08 04:35:29;;;;;;;11.00;1.92;;;12.00;99.90;;;;;;5068789;28;20064;-58
2022/11/08 04:38:01;;;;;;;6.93;1.05;;;12.00;99.90;;;;;;5068290;28;20043;-58
2022/11/08 04:40:29;;;;;;;4.50;1.35;;;12.00;99.90;;;;;;5066357;28;20072;-57
2022/11/08 04:42:54;;;;;;;12.38;1.35;;;11.90;99.90;;;;;;5065611;28;20403;-59
2022/11/08 04:45:20;;;;;;;6.97;1.00;;;11.90;99.90;;;;;;5065831;28;20040;-58
2022/11/08 04:47:46;;;;;;;6.65;1.88;;;11.90;99.90;;;;;;5059534;28;20111;-58
2022/11/08 04:50:12;;;;;;;4.95;1.33;;;11.90;99.90;;;;;;5055108;28;20449;-56
2022/11/08 04:52:37;;;;;;;5.45;1.15;;;11.80;99.90;;;;;;5072838;28;20063;-56
2022/11/08 04:55:03;;;;;;;8.53;2.17;;;11.80;99.90;;;;;;5063761;28;20163;-57
2022/11/08 04:57:29;;;;;;;9.00;1.20;;;11.80;99.90;;;;;;5047958;28;20037;-57
2022/11/08 04:59:54;;;;;;;6.43;2.20;;;11.70;99.90;;;;;;5032313;28;20041;-57
2022/11/08 05:02:20;;;;;;;8.73;2.07;;;11.70;99.90;;;;;;5032686;28;20376;-58
2022/11/08 05:04:46;;;;;;;8.37;2.17;;;11.70;99.90;;;;;;5032391;28;20040;-58
2022/11/08 05:07:11;;;;;;;7.55;1.60;;;11.70;99.90;;;;;;5049483;28;20032;-58
2022/11/08 05:09:37;;;;;;;8.27;1.80;;;11.70;99.90;;;;;;5037864;28;20097;-58
2022/11/08 05:12:02;;;;;;;6.60;1.33;;;11.70;99.90;;;;;;5032533;28;20045;-59
2022/11/08 05:14:28;;;;;;;6.40;1.50;;;11.60;99.90;;;;;;5031563;28;20410;-57
2022/11/08 05:16:53;;;;;;;4.00;1.27;;;11.60;99.90;;;;;;5032725;28;20276;-56
2022/11/08 05:23:22;;;;;;;5.33;1.57;;;11.60;99.90;;;;;;5033419;28;20076;-57
2022/11/08 05:24:48;;;;;;;10.65;2.42;;;11.60;99.90;;;;;;5035240;28;20037;-58
2022/11/08 05:27:14;;;;;;;8.67;2.13;;;11.60;99.90;;;;;;5051905;28;20047;-58
2022/11/08 05:29:40;;;;;;;5.50;0.80;;;11.50;99.90;;;;;;5050745;28;20045;-58
2022/11/08 05:32:05;;;;;;;8.33;2.03;;;11.50;99.90;;;;;;5052365;28;20769;-57
2022/11/08 05:34:31;;;;;;;7.03;1.73;;;11.50;99.90;;;;;;5051729;28;20472;-59
2022/11/08 05:36:56;;;;;;;10.77;2.07;;;11.50;99.90;;;;;;5052265;28;20044;-55
2022/11/08 05:39:22;;;;;;;8.77;2.40;;;11.60;99.90;;;;;;5045398;28;20033;-58
2022/11/08 05:41:47;;;;;;;7.03;1.90;;;11.50;99.90;;;;;;5032428;28;20068;-59
2022/11/08 05:44:13;;;;;;;10.47;2.43;;;11.50;99.90;;;;;;5050712;28;20039;-57
2022/11/08 05:46:38;;;;;;;8.77;2.13;;;11.50;99.90;;;;;;5051732;28;20044;-58
2022/11/08 05:49:04;;;;;;;9.87;3.07;;;11.50;99.90;;;;;;5051664;28;20122;-58
2022/11/08 05:51:30;;;;;;;7.72;2.40;;;11.50;99.90;;;;;;5032118;28;20553;-59
2022/11/08 05:53:56;;;;;;;7.60;2.42;;;11.50;99.90;;;;;;5031102;28;20073;-59
2022/11/08 05:56:21;;;;;;;9.97;2.43;;;11.50;99.90;;;;;;5030576;28;20068;-56
2022/11/08 05:58:47;;;;;;;7.67;1.97;;;11.50;99.90;;;;;;5031798;28;20067;-59
2022/11/08 06:01:15;;;;;;;11.13;2.63;;;11.50;99.90;;;;;;5044603;28;20033;-59
2022/11/08 06:03:41;;;;;;;7.97;2.13;;;11.50;99.90;;;;;;5050407;28;20041;-58
2022/11/08 06:06:12;;;;;;;6.88;2.10;;;11.40;99.90;;;;;;5051195;28;20120;-58
2022/11/08 06:08:39;;;;;;;8.45;2.10;;;11.40;99.90;;;;;;5050947;28;20041;-59
2022/11/08 06:11:09;;;;;;;10.43;1.85;;;11.40;99.90;;;;;;5049824;28;20029;-60
2022/11/08 06:13:35;;;;;;;6.85;2.05;;;11.30;99.90;;;;;;5050948;28;20178;-59
2022/11/08 06:16:04;;;;;;;8.60;2.63;;;11.30;99.90;;;;;;5051279;28;20497;-59
2022/11/08 06:18:31;;;;;;;5.82;2.38;;;11.30;99.90;;;;;;5035923;28;20449;-58
2022/11/08 06:20:58;;;;;;;7.05;3.35;;;11.20;99.90;;;;;;5033688;28;20029;-58
2022/11/08 06:23:23;;;;;;;12.13;7.63;;;11.20;99.90;;;;;;5038112;28;20420;-58
2022/11/08 06:25:49;;;;;;;15.83;8.13;;;11.20;99.90;;;;;;5037961;28;20124;-56
2022/11/08 06:28:15;;;;;;;14.90;6.73;;;11.10;99.90;;;;;;5031415;28;20046;-58
2022/11/08 06:30:40;;;;;;;8.73;5.03;;;11.10;99.90;;;;;;5050728;28;20037;-57
2022/11/08 06:33:06;;;;;;;11.82;4.93;;;11.20;99.90;;;;;;5033245;28;20084;-58
2022/11/08 06:35:31;;;;;;;10.93;3.83;;;11.20;99.90;;;;;;5030724;28;20049;-58
2022/11/08 06:37:57;;;;;;;5.97;2.03;;;11.20;99.90;;;;;;5030570;28;20041;-56
2022/11/08 06:40:23;;;;;;;14.43;4.07;;;11.10;99.90;;;;;;5030587;28;20037;-56
2022/11/08 06:42:48;;;;;;;7.82;4.57;;;11.10;99.90;;;;;;5056479;28;20170;-58
2022/11/08 06:45:14;;;;;;;12.67;5.07;;;11.10;99.90;;;;;;5050729;28;20037;-58
2022/11/08 06:47:39;;;;;;;12.48;6.28;;;11.10;99.90;;;;;;5049502;28;20412;-58
2022/11/08 06:50:05;;;;;;;12.37;5.23;;;11.10;99.90;;;;;;5047252;28;20120;-58
2022/11/08 06:52:31;;;;;;;8.52;2.63;;;11.10;99.90;;;;;;5034985;28;20049;-56
2022/11/08 06:54:57;;;;;;;6.83;3.80;;;11.10;99.90;;;;;;5030203;28;20038;-56
2022/11/08 06:57:22;;;;;;;7.87;3.70;;;11.10;99.90;;;;;;5042834;28;20847;-57
2022/11/08 06:59:48;;;;;;;7.07;2.87;;;11.20;99.90;;;;;;5050437;28;20123;-58
2022/11/08 07:02:14;;;;;;;17.00;3.40;;;11.20;99.90;;;;;;5048701;28;20033;-59
2022/11/08 07:04:39;;;;;;;7.22;2.70;;;11.20;99.90;;;;;;5049204;28;20120;-58
2022/11/08 07:07:05;;;;;;;11.33;2.80;;;11.20;99.90;;;;;;5040472;28;20148;-57
2022/11/08 07:09:30;;;;;;;5.23;2.00;;;11.20;99.90;;;;;;5058480;28;20097;-58
2022/11/08 07:11:56;;;;;;;9.00;2.07;;;11.30;99.90;;;;;;5050340;28;20537;-57
2022/11/08 07:14:21;;;;;;;5.55;1.85;;;11.40;99.90;;;;;;5053708;28;20406;-57
2022/11/08 07:16:47;;;;;;;7.07;2.43;;;11.40;99.90;;;;;;5049906;28;20044;-58
2022/11/08 07:19:13;;;;;;;6.50;1.92;;;11.50;99.90;;;;;;5050211;28;20383;-58
2022/11/08 07:21:39;;;;;;;5.85;1.77;;;11.60;99.90;;;;;;5049873;28;20078;-58
2022/11/08 07:24:04;;;;;;;4.05;1.33;;;11.50;99.90;;;;;;5031543;28;20120;-57
2022/11/08 07:26:30;;;;;;;9.30;1.58;;;11.50;99.90;;;;;;5038636;28;20047;-57
2022/11/08 07:28:56;;;;;;;6.90;1.50;;;11.50;99.90;;;;;;5029048;28;20413;-57
2022/11/08 07:31:22;;;;;;;7.70;2.00;;;11.50;99.90;;;;;;5035747;28;20291;-57
2022/11/08 07:33:48;;;;;;;7.05;1.90;;;11.50;99.90;;;;;;5035825;28;20113;-59
2022/11/08 07:36:14;;;;;;;4.13;1.08;;;11.50;99.90;;;;;;5038156;28;20033;-58
2022/11/08 07:38:39;;;;;;;5.03;1.60;;;11.60;99.90;;;;;;5042087;28;20045;-59
2022/11/08 07:41:05;;;;;;;10.10;1.88;;;11.70;99.90;;;;;;5043639;28;20048;-58
2022/11/08 07:43:31;;;;;;;2.75;1.38;;;11.70;99.90;;;;;;5032453;28;20041;-59
2022/11/08 07:45:59;;;;;;;10.60;1.57;;;11.80;99.90;;;;;;5032283;28;20041;-59
2022/11/08 07:48:28;;;;;;;2.45;1.20;;;11.80;99.90;;;;;;5045636;28;20286;-59
2022/11/08 07:50:54;;;;;;;8.68;1.70;;;11.80;99.90;;;;;;5040782;28;20045;-59
2022/11/08 07:53:20;;;;;;;7.00;0.90;;;11.80;99.90;;;;;;5038276;28;20120;-59
2022/11/08 07:55:46;;;;;;;;;;;11.80;99.90;;;;;;5036304;28;20469;-59
2022/11/08 07:58:13;;;;;;;6.97;1.42;;;11.80;99.90;;;;;;5038111;28;20397;-59
2022/11/08 08:00:40;;;;;;;5.47;1.35;;;11.90;99.90;;;;;;5042195;28;20041;-58
2022/11/08 08:03:07;;;;;;;4.68;0.93;;;11.90;99.90;;;;;;5045837;28;20036;-59
2022/11/08 08:05:35;;;;;;;4.03;1.77;;;11.90;99.90;;;;;;5040905;28;20046;-58
2022/11/08 08:08:02;;;;;;;8.20;1.15;;;12.00;99.90;;;;;;5034102;28;20036;-59
2022/11/08 08:10:29;;;;;;;2.55;0.93;;;12.00;99.90;;;;;;5037878;28;20560;-58
2022/11/08 08:12:56;;;;;;;4.03;1.48;;;12.20;99.90;;;;;;5033984;28;20521;-59
2022/11/08 08:15:21;;;;;;;;;;;12.40;99.90;;;;;;5045594;28;20037;-59
2022/11/08 08:17:50;;;;;;;8.25;1.15;;;12.60;99.90;;;;;;5040073;28;19917;-58
2022/11/08 08:20:15;;;;;;;6.60;1.50;;;12.80;99.90;;;;;;5036837;28;20471;-59
2022/11/08 08:22:45;;;;;;;4.60;0.85;;;13.10;99.90;;;;;;5040513;28;20068;-59
2022/11/08 08:25:11;;;;;;;1.80;0.65;;;13.50;99.90;;;;;;5044150;28;20073;-59
2022/11/08 08:27:37;;;;;;;7.45;0.73;;;13.80;99.90;;;;;;5033111;28;20033;-61
2022/11/08 08:30:04;;;;;;;3.90;0.63;;;14.20;99.90;;;;;;5036390;28;20037;-59
2022/11/08 08:32:29;;;;;;;9.00;0.80;;;14.50;99.90;;;;;;5034904;28;20036;-60
2022/11/08 08:34:55;;;;;;;2.40;0.50;;;14.80;99.90;;;;;;5047141;28;20410;-60
2022/11/08 08:37:20;;;;;;;3.10;0.80;;;15.00;99.90;;;;;;5042590;28;20045;-60
2022/11/08 08:39:46;;;;;;;4.53;0.50;;;15.10;99.90;;;;;;5060327;28;20744;-60
2022/11/08 08:42:11;;;;;;;2.95;0.50;;;15.10;99.90;;;;;;5058152;28;20045;-60
2022/11/08 08:44:37;;;;;;;3.67;0.77;;;14.90;99.90;;;;;;5059961;28;20037;-60
2022/11/08 08:47:02;;;;;;;4.03;0.70;;;14.70;99.90;;;;;;5041048;28;20108;-58
2022/11/08 08:49:28;;;;;;;2.85;0.57;;;14.50;99.90;;;;;;5046280;28;20271;-58
2022/11/08 08:51:53;;;;;;;7.67;1.13;;;14.30;99.90;;;;;;5047064;28;20044;-59
2022/11/08 08:54:19;;;;;;;3.30;0.40;;;14.20;99.90;;;;;;5046361;28;20041;-60
2022/11/08 08:56:44;;;;;;;4.15;0.55;;;14.20;99.90;;;;;;5047081;28;20287;-57
2022/11/08 08:59:10;;;;;;;3.70;0.75;;;14.10;99.90;;;;;;5047470;28;20112;-59
2022/11/08 09:01:36;;;;;;;2.90;0.60;;;14.00;99.90;;;;;;5047743;28;20071;-58
2022/11/08 09:04:03;;;;;;;2.40;0.40;;;14.00;99.90;;;;;;5041683;28;20279;-57
2022/11/08 09:06:28;;;;;;;6.90;0.80;;;14.00;99.90;;;;;;5046153;28;20772;-58
2022/11/08 09:08:54;;;;;;;3.60;0.70;;;14.10;99.90;;;;;;5048555;28;20041;-58
2022/11/08 09:11:19;;;;;;;3.57;0.60;;;14.20;99.90;;;;;;5043403;28;20787;-58
2022/11/08 09:13:45;;;;;;;2.63;0.43;;;14.20;99.90;;;;;;5032907;28;20526;-57
2022/11/08 09:16:12;;;;;;;2.47;0.65;;;14.30;99.90;;;;;;5045581;28;20056;-57
2022/11/08 09:18:38;;;;;;;2.95;0.77;;;14.40;99.90;;;;;;5030274;28;20498;-56
2022/11/08 09:21:04;;;;;;;1.77;0.40;;;14.40;99.90;;;;;;5038362;28;20055;-55
2022/11/08 09:23:29;;;;;;;1.30;0.30;;;14.50;99.90;;;;;;5034158;28;20037;-57
2022/11/08 09:26:00;;;;;;;2.85;0.85;;;14.60;99.90;;;;;;5045689;28;20075;-55
2022/11/08 09:28:26;;;;;;;2.95;0.70;;;14.60;99.90;;;;;;5035914;28;20402;-56
2022/11/08 09:30:51;;;;;;;0.77;0.40;;;14.70;99.90;;;;;;5044771;28;20033;-55
2022/11/08 09:33:17;;;;;;;6.15;1.00;;;14.80;99.90;;;;;;5034834;28;20044;-57
2022/11/08 09:35:45;;;;;;;1.13;0.32;;;14.90;99.90;;;;;;5034084;28;20063;-57
2022/11/08 09:38:10;;;;;;;2.72;0.85;;;14.90;99.90;;;;;;5040182;28;20052;-56
2022/11/08 09:40:51;;;;;;;2.53;0.63;;;14.90;99.90;;;;;;5039664;28;20034;-58
2022/11/08 09:43:20;;;;;;;1.55;0.40;;;15.00;99.90;;;;;;5027283;28;20077;-56
2022/11/08 09:45:48;;;;;;;2.10;0.82;;;15.00;99.90;;;;;;5044109;28;20112;-57
2022/11/08 09:48:41;;;;;;;6.22;0.73;;;15.00;99.90;;;;;;5037734;28;20112;-56
2022/11/08 09:51:11;;;;;;;3.25;0.60;;;15.10;99.90;;;;;;5036587;28;20037;-55
2022/11/08 09:53:58;;;;;;;8.07;0.60;;;15.00;99.90;;;;;;5038582;28;20096;-57
2022/11/08 09:56:30;;;;;;;8.50;0.40;;;14.90;99.90;;;;;;5027105;28;20041;-57
2022/11/08 09:59:03;;;;;;;1.65;0.63;;;14.80;99.90;;;;;;5027020;28;20145;-54
2022/11/08 10:01:34;;;;;;;7.93;1.13;;;14.80;99.90;;;;;;5046293;28;20543;-56
2022/11/08 10:04:13;;;;;;;4.93;0.70;;;14.80;99.90;;;;;;5037633;28;20060;-55
2022/11/08 10:07:00;;;;;;;1.65;0.73;;;14.70;99.90;;;;;;5031099;28;20036;-58
2022/11/08 10:09:52;;;;;;;2.40;0.40;;;14.70;99.90;;;;;;5040119;28;20044;-56
2022/11/08 10:12:56;;;;;;;3.67;0.70;;;14.70;99.90;;;;;;5046089;28;20049;-58
2022/11/08 10:15:41;;;;;;;2.30;0.50;;;14.70;99.90;;;;;;5028416;28;20546;-55
2022/11/08 10:18:31;;;;;;;2.70;0.52;;;14.70;99.90;;;;;;5034521;28;20041;-58
2022/11/08 10:21:22;;;;;;;2.03;0.57;;;14.70;99.90;;;;;;5045062;28;20478;-58
2022/11/08 10:24:08;;;;;;;1.85;0.57;;;14.60;99.90;;;;;;5035707;28;20049;-57
2022/11/08 10:26:41;;;;;;;4.70;0.80;;;14.70;99.90;;;;;;5046245;28;20037;-58
2022/11/08 10:29:13;;;;;;;2.75;0.80;;;14.70;99.90;;;;;;5040315;28;20034;-58
2022/11/08 10:31:39;;;;;;;3.63;0.90;;;14.60;99.90;;;;;;5044938;28;20059;-58
2022/11/08 10:34:18;;;;;;;1.80;0.45;;;14.70;99.90;;;;;;5043084;28;20037;-58
2022/11/08 10:36:50;;;;;;;2.72;0.80;;;14.60;99.90;;;;;;5036836;28;20044;-59
2022/11/08 10:39:25;;;;;;;4.47;0.50;;;14.60;99.90;;;;;;5036713;28;20080;-58
2022/11/08 10:42:15;;;;;;;3.15;0.60;;;14.60;99.90;;;;;;5036120;28;20546;-58
2022/11/08 10:44:42;;;;;;;3.72;0.70;;;14.60;99.90;;;;;;5037024;28;20037;-58
2022/11/08 10:47:19;;;;;;;6.10;0.93;;;14.60;99.90;;;;;;5035382;28;20044;-57
2022/11/08 10:49:44;;;;;;;;;;;14.60;99.90;;;;;;5032588;28;20037;-58
2022/11/08 10:52:10;;;;;;;9.35;0.95;;;14.60;99.90;;;;;;5034106;28;19971;-59
2022/11/08 10:54:47;;;;;;;3.73;0.57;;;14.60;99.90;;;;;;5033472;28;20037;-57
2022/11/08 10:57:16;;;;;;;2.25;0.40;;;14.50;99.90;;;;;;5036482;28;20033;-59
2022/11/08 10:59:43;;;;;;;4.75;0.52;;;14.50;99.90;;;;;;5034720;28;20069;-59
2022/11/08 11:02:31;;;;;;;4.57;0.70;;;14.50;99.90;;;;;;5032874;28;20041;-58
2022/11/08 11:05:21;;;;;;;2.65;0.50;;;14.50;99.90;;;;;;5034344;28;20031;-59
2022/11/08 11:07:57;;;;;;;4.88;1.15;;;14.50;99.90;;;;;;5033263;28;20108;-59
2022/11/08 11:10:34;;;;;;;5.40;1.07;;;14.50;99.90;;;;;;5030867;28;20152;-59
2022/11/08 11:13:23;;;;;;;3.67;1.30;;;14.50;99.90;;;;;;5034867;28;20478;-58
2022/11/08 11:15:59;;;;;;;2.40;0.98;;;14.50;99.90;;;;;;5037040;28;20037;-59
2022/11/08 11:18:32;;;;;;;2.72;0.57;;;14.60;99.90;;;;;;5036290;28;20045;-58
2022/11/08 11:21:20;;;;;;;2.55;0.50;;;14.60;99.90;;;;;;5033596;28;20133;-59
2022/11/08 11:23:52;;;;;;;5.28;0.93;;;14.60;99.90;;;;;;5033409;28;20171;-59
2022/11/08 11:26:30;;;;;;;5.28;0.60;;;14.60;99.90;;;;;;5035414;28;20037;-58
2022/11/08 11:29:08;;;;;;;4.40;1.10;;;14.60;99.90;;;;;;5035916;28;20143;-57
2022/11/08 11:31:39;;;;;;;2.83;0.50;;;14.60;99.90;;;;;;5033257;28;20048;-57
2022/11/08 11:34:17;;;;;;;2.10;0.60;;;14.70;99.90;;;;;;5036212;28;20065;-57
2022/11/08 11:37:12;;;;;;;2.13;0.68;;;14.70;99.90;;;;;;5033787;28;20029;-58
2022/11/08 11:40:10;;;;;;;1.73;0.70;;;14.90;99.90;;;;;;5035282;28;20037;-57
2022/11/08 11:42:53;;;;;;;4.85;0.70;;;15.00;99.90;;;;;;5033007;28;20410;-57
2022/11/08 11:45:30;;;;;;;2.72;0.90;;;15.10;99.90;;;;;;5037936;28;20041;-57
2022/11/08 11:48:00;;;;;;;1.92;0.70;;;15.10;99.90;;;;;;5034475;28;20042;-57
2022/11/08 11:50:33;;;;;;;2.83;1.08;;;15.00;99.90;;;;;;5034273;28;20033;-57
2022/11/08 11:53:03;;;;;;;5.20;1.20;;;15.00;99.90;;;;;;5033024;28;20034;-57
2022/11/08 11:55:44;;;;;;;3.28;0.50;;;14.90;99.90;;;;;;5033542;28;20037;-57
2022/11/08 11:58:16;;;;;;;3.08;1.08;;;14.90;99.90;;;;;;5035322;28;20423;-57
2022/11/08 12:00:49;;;;;;;6.47;1.08;;;14.90;99.90;;;;;;5034341;28;20041;-57
2022/11/08 12:03:27;;;;;;;4.55;0.80;;;14.90;99.90;;;;;;5037760;28;20037;-58
2022/11/08 12:05:59;;;;;;;1.58;0.85;;;14.80;99.90;;;;;;5036161;28;20032;-56
2022/11/08 12:08:31;;;;;;;2.58;0.80;;;14.80;99.90;;;;;;5038623;28;20037;-57
2022/11/08 12:11:16;;;;;;;3.53;0.60;;;14.80;99.90;;;;;;5038677;28;20128;-57
2022/11/08 12:13:57;;;;;;;0.95;0.60;;;14.80;99.90;;;;;;5037952;28;20091;-57
2022/11/08 12:16:27;;;;;;;7.32;0.63;;;14.80;99.90;;;;;;5037176;28;20116;-58
2022/11/08 12:19:17;;;;;;;3.10;0.90;;;14.80;99.90;;;;;;5038708;28;20033;-57
2022/11/08 12:21:57;;;;;;;3.38;0.70;;;14.80;99.90;;;;;;5035648;28;20060;-57
2022/11/08 12:24:57;;;;;;;2.45;0.60;;;14.90;99.90;;;;;;5035724;28;20041;-57
2022/11/08 12:28:01;;;;;;;1.15;0.60;;;15.00;99.90;;;;;;5038342;28;20185;-56
2022/11/08 12:30:39;;;;;;;2.05;0.73;;;15.00;99.90;;;;;;5026886;28;20041;-57
2022/11/08 12:33:20;;;;;;;3.33;0.77;;;15.10;99.90;;;;;;5039341;28;20037;-56
2022/11/08 12:36:10;;;;;;;9.57;0.80;;;15.10;99.90;;;;;;5035939;28;20029;-56
2022/11/08 12:38:42;;;;;;;3.42;0.50;;;15.00;99.90;;;;;;5034494;28;20041;-56
2022/11/08 12:41:27;;;;;;;3.85;0.60;;;15.00;99.90;;;;;;5037549;28;20041;-56
2022/11/08 12:44:22;;;;;;;4.88;0.57;;;14.90;99.90;;;;;;5038566;28;20037;-55
2022/11/08 12:47:09;;;;;;;2.50;0.50;;;14.90;99.90;;;;;;5035664;28;20376;-55
2022/11/08 12:50:12;;;;;;;3.90;0.55;;;14.90;99.90;;;;;;5037845;28;20202;-57
2022/11/08 12:52:40;;;;;;;7.00;0.93;;;15.00;99.90;;;;;;5034091;28;20131;-57
2022/11/08 12:55:14;;;;;;;5.32;0.65;;;15.20;99.90;;;;;;5038978;28;20042;-57
2022/11/08 12:57:41;;;;;;;1.98;0.60;;;15.30;99.90;;;;;;5037581;28;20033;-57
2022/11/08 13:00:15;;;;;;;2.58;0.88;;;15.50;99.90;;;;;;5037063;28;20091;-57
2022/11/08 13:02:43;;;;;;;6.03;1.13;;;15.60;99.90;;;;;;5037090;28;20057;-56
2022/11/08 13:05:24;;;;;;;3.17;0.70;;;15.70;99.90;;;;;;5030436;28;20042;-57
2022/11/08 13:08:11;;;;;;;3.10;0.65;;;15.70;99.90;;;;;;5037789;28;20037;-56
2022/11/08 13:10:46;;;;;;;4.55;0.70;;;15.80;99.90;;;;;;5037026;28;20047;-56
2022/11/08 13:13:44;;;;;;;4.10;0.80;;;15.70;99.90;;;;;;5017441;28;20044;-57
2022/11/08 13:16:17;;;;;;;5.47;0.73;;;15.60;99.90;;;;;;5033056;28;20486;-57
2022/11/08 13:18:57;;;;;;;1.92;0.82;;;15.60;99.90;;;;;;5036447;28;20398;-57
2022/11/08 13:21:29;;;;;;;3.28;1.05;;;15.70;99.90;;;;;;5041453;28;20037;-56
2022/11/08 13:24:00;;;;;;;2.22;0.70;;;15.70;99.90;;;;;;5049305;28;20367;-56